Time;durP1;ratioP1;P1;durP2;ratioP2;P2;SDS_P1;SDS_P2;PMS_P1;PMS_P2;Temp;Humidity;BMP_temperature;BMP_pressure;BME280_temperature;BME280_humidity;BME280_pressure;Samples;Min_cycle;Max_cycle;Signal;HPM_P1;HPM_P2
2022/10/27 00:01:22;;;;;;;9.27;6.35;;;24.40;49.50;;;;;;6225152;28;81180;-65
2022/10/27 00:04:23;;;;;;;8.70;5.95;;;24.40;49.40;;;;;;6227026;28;80389;-58
2022/10/27 00:07:23;;;;;;;11.88;6.65;;;24.40;49.30;;;;;;6229892;28;80936;-57
2022/10/27 00:10:24;;;;;;;9.50;6.53;;;24.40;49.40;;;;;;6225842;27;81139;-57
2022/10/27 00:13:24;;;;;;;9.60;6.45;;;24.40;49.40;;;;;;6224398;28;80337;-56
2022/10/27 00:16:25;;;;;;;10.15;6.32;;;24.40;49.30;;;;;;6226096;28;80365;-57
2022/10/27 00:19:25;;;;;;;12.18;6.63;;;24.40;49.30;;;;;;6227543;28;80624;-56
2022/10/27 00:22:26;;;;;;;11.13;6.00;;;24.40;49.10;;;;;;6224765;28;81754;-51
2022/10/27 00:25:26;;;;;;;9.98;6.43;;;24.40;49.30;;;;;;6224797;28;80589;-49
2022/10/27 00:28:27;;;;;;;8.77;5.88;;;24.40;49.30;;;;;;6225994;28;80436;-54
2022/10/27 00:31:27;;;;;;;9.68;6.60;;;24.40;49.30;;;;;;6224767;28;80260;-50
2022/10/27 00:34:28;;;;;;;9.02;6.15;;;24.40;49.20;;;;;;6225775;28;80578;-51
2022/10/27 00:37:28;;;;;;;9.75;6.53;;;24.40;49.20;;;;;;6226848;28;81317;-51
2022/10/27 00:40:29;;;;;;;9.57;6.35;;;24.30;49.20;;;;;;6232141;27;81872;-49
2022/10/27 00:43:29;;;;;;;12.32;6.50;;;24.40;49.00;;;;;;6229744;28;80902;-63
2022/10/27 00:46:30;;;;;;;7.78;6.00;;;24.30;49.20;;;;;;6224064;28;80686;-62
2022/10/27 00:49:30;;;;;;;11.05;6.20;;;24.30;49.10;;;;;;6232093;27;81048;-62
2022/10/27 00:52:31;;;;;;;8.15;5.55;;;24.30;49.10;;;;;;6222627;28;80600;-61
2022/10/27 00:55:32;;;;;;;9.20;5.93;;;24.30;49.10;;;;;;6232945;28;80293;-63
2022/10/27 00:58:32;;;;;;;9.07;6.15;;;24.30;49.00;;;;;;6227943;28;80256;-61
2022/10/27 01:01:33;;;;;;;8.88;5.50;;;24.40;49.00;;;;;;6227933;28;83708;-50
2022/10/27 01:04:33;;;;;;;10.68;6.20;;;24.30;49.20;;;;;;6218564;28;84274;-51
2022/10/27 01:07:34;;;;;;;10.85;5.68;;;24.30;49.10;;;;;;6220288;28;84522;-51
2022/10/27 01:10:34;;;;;;;10.93;5.93;;;24.30;49.30;;;;;;6217107;28;81357;-49
2022/10/27 01:13:35;;;;;;;8.07;5.72;;;24.30;49.00;;;;;;6223984;28;80784;-51
2022/10/27 01:16:35;;;;;;;9.77;5.68;;;24.30;49.10;;;;;;6219237;28;81680;-52
2022/10/27 01:19:36;;;;;;;8.00;5.55;;;24.30;49.20;;;;;;6227789;28;80381;-53
2022/10/27 01:22:36;;;;;;;8.15;5.53;;;24.30;49.00;;;;;;6224287;28;84399;-48
2022/10/27 01:25:37;;;;;;;7.97;5.50;;;24.30;49.30;;;;;;6227843;28;80653;-52
2022/10/27 01:28:37;;;;;;;10.77;6.07;;;24.30;49.10;;;;;;6224721;28;83946;-50
2022/10/27 01:31:38;;;;;;;7.63;5.10;;;24.30;49.10;;;;;;6224620;28;80942;-49
2022/10/27 01:34:38;;;;;;;8.20;5.60;;;24.30;49.10;;;;;;6220894;28;86620;-51
2022/10/27 01:37:39;;;;;;;9.77;5.95;;;24.30;49.00;;;;;;6232456;28;81225;-54
2022/10/27 01:40:39;;;;;;;8.38;5.70;;;24.30;48.90;;;;;;6228743;28;80901;-50
2022/10/27 01:43:40;;;;;;;11.65;6.10;;;24.30;48.90;;;;;;6227663;28;80601;-53
2022/10/27 01:46:40;;;;;;;8.55;5.55;;;24.30;48.90;;;;;;6215519;28;80992;-51
2022/10/27 01:49:41;;;;;;;8.30;5.63;;;24.30;48.90;;;;;;6220119;28;81269;-52
2022/10/27 01:52:42;;;;;;;8.05;5.65;;;24.30;49.00;;;;;;6227082;28;84721;-54
2022/10/27 01:55:42;;;;;;;10.95;5.53;;;24.30;48.80;;;;;;6222996;28;81159;-62
2022/10/27 01:58:43;;;;;;;8.27;5.50;;;24.30;48.80;;;;;;6218095;28;82163;-63
2022/10/27 02:01:43;;;;;;;7.85;5.38;;;24.30;48.70;;;;;;6237370;28;80862;-61
2022/10/27 02:04:44;;;;;;;7.00;5.22;;;24.30;48.70;;;;;;6235420;28;80588;-61
2022/10/27 02:07:44;;;;;;;9.55;4.78;;;24.30;48.70;;;;;;6230647;28;84711;-62
2022/10/27 02:10:45;;;;;;;7.75;5.65;;;24.30;48.60;;;;;;6219684;28;80712;-62
2022/10/27 02:13:46;;;;;;;10.60;5.68;;;24.30;48.60;;;;;;6234744;28;86129;-62
2022/10/27 02:16:46;;;;;;;8.57;6.13;;;24.30;48.60;;;;;;6233407;28;80447;-62
2022/10/27 02:19:46;;;;;;;9.32;6.20;;;24.30;48.40;;;;;;6231526;28;80320;-62
2022/10/27 02:22:47;;;;;;;10.13;6.18;;;24.30;48.40;;;;;;6232464;28;80892;-62
2022/10/27 02:25:47;;;;;;;11.48;6.18;;;24.30;48.40;;;;;;6233626;28;80408;-63
2022/10/27 02:28:48;;;;;;;7.55;5.22;;;24.30;48.40;;;;;;6223090;28;80965;-64
2022/10/27 02:31:48;;;;;;;10.75;5.65;;;24.20;48.40;;;;;;6224126;28;82390;-62
2022/10/27 02:34:49;;;;;;;7.38;5.50;;;24.30;48.50;;;;;;6226842;28;80899;-62
2022/10/27 02:37:49;;;;;;;11.68;5.75;;;24.20;48.30;;;;;;6231929;28;83666;-63
2022/10/27 02:40:50;;;;;;;8.70;5.28;;;24.30;48.40;;;;;;6225058;28;80665;-63
2022/10/27 02:43:50;;;;;;;8.88;5.50;;;24.30;48.60;;;;;;6222646;28;83512;-62
2022/10/27 02:46:51;;;;;;;8.80;5.70;;;24.30;48.50;;;;;;6226506;28;80379;-63
2022/10/27 02:49:51;;;;;;;9.43;5.50;;;24.20;48.40;;;;;;6236959;28;80699;-63
2022/10/27 02:52:52;;;;;;;7.65;5.13;;;24.20;48.30;;;;;;6220081;28;81171;-62
2022/10/27 02:55:52;;;;;;;8.48;5.65;;;24.30;48.40;;;;;;6222220;28;80288;-63
2022/10/27 02:58:53;;;;;;;9.02;5.32;;;24.20;48.30;;;;;;6236600;28;81153;-63
2022/10/27 03:01:54;;;;;;;7.60;5.35;;;24.20;48.30;;;;;;6208446;28;80435;-63
2022/10/27 03:04:54;;;;;;;7.90;5.18;;;24.20;48.00;;;;;;6237393;28;80332;-64
2022/10/27 03:07:55;;;;;;;6.63;5.10;;;24.20;48.30;;;;;;6220564;28;80020;-62
2022/10/27 03:10:55;;;;;;;9.02;5.68;;;24.20;48.00;;;;;;6221597;28;80487;-62
2022/10/27 03:13:56;;;;;;;8.07;5.55;;;24.20;48.00;;;;;;6235565;28;81865;-62
2022/10/27 03:16:56;;;;;;;8.98;5.18;;;24.20;47.90;;;;;;6235837;28;86118;-64
2022/10/27 03:19:57;;;;;;;8.30;5.53;;;24.20;48.00;;;;;;6223642;28;80409;-63
2022/10/27 03:22:57;;;;;;;10.27;5.72;;;24.20;47.70;;;;;;6222658;28;80795;-63
2022/10/27 03:25:59;;;;;;;8.48;5.50;;;24.20;47.60;;;;;;6230871;28;81412;-62
2022/10/27 03:28:59;;;;;;;7.85;5.28;;;24.20;47.70;;;;;;6225316;28;80900;-63
2022/10/27 03:32:00;;;;;;;7.82;5.05;;;24.20;47.60;;;;;;6228329;28;80468;-63
2022/10/27 03:35:00;;;;;;;7.78;5.55;;;24.20;47.60;;;;;;6232941;28;80399;-64
2022/10/27 03:38:01;;;;;;;8.60;5.10;;;24.30;47.70;;;;;;6249952;27;80576;-63
2022/10/27 03:41:01;;;;;;;7.78;5.03;;;24.30;47.90;;;;;;6227691;28;80378;-64
2022/10/27 03:44:02;;;;;;;8.18;5.22;;;24.30;48.00;;;;;;6226257;28;81212;-63
2022/10/27 03:47:02;;;;;;;7.97;5.22;;;24.30;48.00;;;;;;6209534;28;88058;-62
2022/10/27 03:50:03;;;;;;;9.15;5.18;;;24.40;48.10;;;;;;6227845;28;80221;-62
2022/10/27 03:53:03;;;;;;;8.55;5.60;;;24.40;48.00;;;;;;6232893;28;80530;-63
2022/10/27 03:56:04;;;;;;;7.30;5.05;;;24.40;48.00;;;;;;6235839;28;80746;-64
2022/10/27 03:59:04;;;;;;;6.28;4.85;;;24.50;47.90;;;;;;6229256;28;80380;-64
2022/10/27 04:02:05;;;;;;;6.30;4.97;;;24.50;47.90;;;;;;6225954;28;81073;-64
2022/10/27 04:05:05;;;;;;;6.85;5.07;;;24.50;47.90;;;;;;6224118;28;83064;-64
2022/10/27 04:08:06;;;;;;;6.18;4.90;;;24.50;47.80;;;;;;6221368;28;80413;-62
2022/10/27 04:11:06;;;;;;;8.32;5.10;;;24.60;47.90;;;;;;6229343;28;80337;-64
2022/10/27 04:14:07;;;;;;;8.75;5.03;;;24.60;47.80;;;;;;6226111;28;84358;-64
2022/10/27 04:17:07;;;;;;;7.80;5.18;;;24.60;47.90;;;;;;6225043;28;80974;-63
2022/10/27 04:20:08;;;;;;;6.10;4.47;;;24.60;47.80;;;;;;6225404;28;80586;-62
2022/10/27 04:23:08;;;;;;;8.02;4.60;;;24.60;47.70;;;;;;6207088;28;81295;-56
2022/10/27 04:26:09;;;;;;;10.52;4.45;;;24.60;47.70;;;;;;6224750;28;80612;-55
2022/10/27 04:29:09;;;;;;;6.90;4.70;;;24.60;47.80;;;;;;6226799;28;80555;-55
2022/10/27 04:32:10;;;;;;;5.78;4.43;;;24.60;48.00;;;;;;6208720;28;82163;-59
2022/10/27 04:35:10;;;;;;;10.10;4.80;;;24.60;48.00;;;;;;6204981;28;80392;-62
2022/10/27 04:38:11;;;;;;;8.80;4.30;;;24.60;47.80;;;;;;6201272;28;80774;-65
2022/10/27 04:41:11;;;;;;;7.70;4.20;;;24.60;47.80;;;;;;6193832;28;83720;-63
2022/10/27 04:44:12;;;;;;;5.93;4.28;;;24.60;47.50;;;;;;6211026;28;80612;-51
2022/10/27 04:47:13;;;;;;;8.98;4.07;;;24.60;47.40;;;;;;6204464;28;80356;-54
2022/10/27 04:50:13;;;;;;;6.18;4.55;;;24.60;47.70;;;;;;6201311;28;80457;-53
2022/10/27 04:53:13;;;;;;;10.43;4.53;;;24.60;47.40;;;;;;6213920;28;81123;-54
2022/10/27 04:56:14;;;;;;;9.77;4.32;;;24.60;47.30;;;;;;6206629;28;80839;-49
2022/10/27 04:59:14;;;;;;;6.57;4.13;;;24.60;47.50;;;;;;6216499;28;80924;-56
2022/10/27 05:02:15;;;;;;;15.35;3.90;;;24.60;47.70;;;;;;6201105;28;80864;-58
2022/10/27 05:05:15;;;;;;;15.80;4.60;;;24.50;48.10;;;;;;6217854;28;80482;-57
2022/10/27 05:08:16;;;;;;;5.20;3.70;;;24.50;47.90;;;;;;6212711;28;80748;-62
2022/10/27 05:11:17;;;;;;;8.43;4.10;;;24.50;47.90;;;;;;6215584;28;83283;-57
2022/10/27 05:14:17;;;;;;;7.88;4.35;;;24.50;47.80;;;;;;6213186;28;81012;-56
2022/10/27 05:17:17;;;;;;;10.52;4.78;;;24.50;48.10;;;;;;6221020;28;80387;-57
2022/10/27 05:20:18;;;;;;;6.53;4.38;;;24.60;48.10;;;;;;6219690;28;81240;-58
2022/10/27 05:23:19;;;;;;;9.18;5.32;;;24.50;48.10;;;;;;6207677;28;81147;-59
2022/10/27 05:26:19;;;;;;;7.93;5.20;;;24.30;46.30;;;;;;6219522;28;80903;-58
2022/10/27 05:29:20;;;;;;;9.00;5.25;;;24.00;46.20;;;;;;6221898;28;80525;-58
2022/10/27 05:32:20;;;;;;;12.15;5.38;;;23.70;46.10;;;;;;6223523;28;80447;-58
2022/10/27 05:35:21;;;;;;;9.80;5.13;;;23.60;46.20;;;;;;6220646;28;80838;-59
2022/10/27 05:38:21;;;;;;;10.00;5.55;;;23.40;46.20;;;;;;6220272;28;80712;-58
2022/10/27 05:41:22;;;;;;;11.68;6.22;;;23.20;46.30;;;;;;6220562;28;80628;-58
2022/10/27 05:44:22;;;;;;;10.90;6.22;;;23.10;46.40;;;;;;6218727;28;80775;-59
2022/10/27 05:47:23;;;;;;;15.55;6.50;;;23.00;46.60;;;;;;6207090;28;80416;-59
2022/10/27 05:50:23;;;;;;;20.08;7.88;;;22.90;46.60;;;;;;6202103;28;80598;-60
2022/10/27 05:53:24;;;;;;;14.73;7.30;;;22.80;46.40;;;;;;6209055;28;81292;-59
2022/10/27 05:56:24;;;;;;;14.55;6.57;;;22.90;47.80;;;;;;6216738;28;80910;-59
2022/10/27 05:59:25;;;;;;;12.43;6.32;;;23.10;47.60;;;;;;6212826;28;80320;-59
2022/10/27 06:02:25;;;;;;;12.95;6.90;;;23.30;47.60;;;;;;6221661;28;83379;-59
2022/10/27 06:05:26;;;;;;;13.73;7.30;;;23.40;47.30;;;;;;6220030;28;80622;-59
2022/10/27 06:08:27;;;;;;;16.25;6.40;;;23.50;47.10;;;;;;6213051;28;86951;-61
2022/10/27 06:11:27;;;;;;;13.88;6.30;;;23.60;46.80;;;;;;6235209;28;80788;-61
2022/10/27 06:14:28;;;;;;;10.43;6.80;;;23.60;46.60;;;;;;6224208;28;80978;-66
2022/10/27 06:17:28;;;;;;;12.65;6.80;;;23.60;46.60;;;;;;6219586;28;82102;-65
2022/10/27 06:20:29;;;;;;;18.92;7.45;;;23.60;46.50;;;;;;6221867;28;82798;-66
2022/10/27 06:23:29;;;;;;;13.75;7.22;;;23.60;46.40;;;;;;6231278;28;80855;-65
2022/10/27 06:26:30;;;;;;;20.08;7.90;;;23.60;46.20;;;;;;6221724;28;81753;-66
2022/10/27 06:29:30;;;;;;;21.20;9.23;;;23.60;46.10;;;;;;6220959;28;80488;-66
2022/10/27 06:32:31;;;;;;;16.13;8.57;;;23.70;46.00;;;;;;6224694;28;80994;-65
2022/10/27 06:35:31;;;;;;;23.90;8.85;;;23.70;46.10;;;;;;6211759;28;80400;-65
2022/10/27 06:38:32;;;;;;;15.73;7.93;;;23.70;46.20;;;;;;6205015;28;82393;-64
2022/10/27 06:41:32;;;;;;;20.45;8.25;;;23.80;46.20;;;;;;6206367;28;80403;-65
2022/10/27 06:44:33;;;;;;;19.05;8.10;;;23.80;46.30;;;;;;6202039;28;81076;-63
2022/10/27 06:47:33;;;;;;;17.50;8.88;;;23.90;46.30;;;;;;6210308;28;81476;-64
2022/10/27 06:50:34;;;;;;;19.77;8.07;;;23.90;46.30;;;;;;6202452;28;82538;-64
2022/10/27 06:53:34;;;;;;;14.48;7.00;;;23.90;46.40;;;;;;6220923;28;80512;-64
2022/10/27 06:56:35;;;;;;;11.73;7.28;;;23.90;46.50;;;;;;6223378;28;80325;-65
2022/10/27 06:59:35;;;;;;;15.40;6.97;;;23.80;46.40;;;;;;6224825;28;80414;-65
2022/10/27 07:02:36;;;;;;;14.52;6.50;;;23.80;46.70;;;;;;6223305;28;80567;-64
2022/10/27 07:05:36;;;;;;;8.73;5.40;;;23.90;46.80;;;;;;6228860;28;80305;-65
2022/10/27 07:08:37;;;;;;;12.82;5.78;;;23.90;46.80;;;;;;6222798;28;81010;-64
2022/10/27 07:11:37;;;;;;;12.57;5.88;;;23.90;46.80;;;;;;6224861;28;80552;-65
2022/10/27 07:14:38;;;;;;;9.73;5.85;;;24.00;46.90;;;;;;6227368;28;87239;-64
2022/10/27 07:17:38;;;;;;;11.95;5.50;;;24.00;47.00;;;;;;6226576;28;81158;-64
2022/10/27 07:20:39;;;;;;;11.25;5.22;;;24.00;47.10;;;;;;6234246;28;83425;-63
2022/10/27 07:23:39;;;;;;;8.43;5.50;;;24.00;47.40;;;;;;6236210;28;80434;-63
2022/10/27 07:26:40;;;;;;;8.27;5.00;;;24.10;47.00;;;;;;6228822;28;82191;-51
2022/10/27 07:29:40;;;;;;;12.18;5.47;;;24.20;46.80;;;;;;6225830;28;80341;-50
2022/10/27 07:32:41;;;;;;;10.40;5.40;;;24.20;46.70;;;;;;6226774;28;83780;-50
2022/10/27 07:35:41;;;;;;;8.23;5.18;;;24.30;46.70;;;;;;6229771;28;80332;-51
2022/10/27 07:38:42;;;;;;;12.00;5.43;;;24.30;46.70;;;;;;6228904;28;84484;-50
2022/10/27 07:41:42;;;;;;;11.45;4.95;;;24.40;46.80;;;;;;6225373;28;80442;-51
2022/10/27 07:44:43;;;;;;;9.20;4.93;;;24.40;46.90;;;;;;6224098;28;80432;-59
2022/10/27 07:47:43;;;;;;;8.70;5.25;;;24.50;46.80;;;;;;6204067;28;81906;-58
2022/10/27 07:50:44;;;;;;;7.72;4.55;;;24.50;46.70;;;;;;6203024;28;80314;-59
2022/10/27 07:53:44;;;;;;;9.68;4.85;;;24.60;47.00;;;;;;6215657;28;80418;-58
2022/10/27 07:56:45;;;;;;;13.60;5.13;;;24.60;46.80;;;;;;6225493;28;80050;-59
2022/10/27 07:59:45;;;;;;;7.35;4.38;;;24.60;46.60;;;;;;6227319;28;80437;-69
2022/10/27 08:02:46;;;;;;;7.55;4.47;;;24.60;47.20;;;;;;6206420;27;83464;-72
2022/10/27 08:05:46;;;;;;;7.32;4.53;;;24.70;46.60;;;;;;6226803;28;80484;-59
2022/10/27 08:08:47;;;;;;;27.40;5.63;;;24.70;46.60;;;;;;6214670;28;85149;-59
2022/10/27 08:11:47;;;;;;;120.20;52.70;;;24.80;46.90;;;;;;6224513;28;81221;-58
2022/10/27 08:14:48;;;;;;;132.18;58.72;;;24.80;47.00;;;;;;6220816;28;83069;-59
2022/10/27 08:17:48;;;;;;;124.28;57.20;;;24.80;46.90;;;;;;6227534;28;83010;-59
2022/10/27 08:20:49;;;;;;;155.27;69.70;;;24.80;46.30;;;;;;6223083;28;84503;-59
2022/10/27 08:23:49;;;;;;;225.65;108.10;;;24.70;46.60;;;;;;6220394;28;82866;-59
2022/10/27 08:26:50;;;;;;;233.65;104.35;;;24.80;46.70;;;;;;6221707;28;85690;-59
2022/10/27 08:29:50;;;;;;;178.18;80.20;;;24.80;46.60;;;;;;6194786;28;86827;-60
2022/10/27 08:32:51;;;;;;;102.03;43.28;;;24.80;46.50;;;;;;6217068;28;86080;-60
2022/10/27 08:35:51;;;;;;;100.30;41.63;;;24.70;46.40;;;;;;6200770;28;84847;-59
2022/10/27 08:38:52;;;;;;;52.55;25.00;;;24.60;46.80;;;;;;6203795;28;89227;-61
2022/10/27 08:41:52;;;;;;;48.47;22.48;;;24.60;46.50;;;;;;6219323;28;83821;-63
2022/10/27 08:44:53;;;;;;;47.17;21.95;;;24.70;46.80;;;;;;6219475;28;82954;-63
2022/10/27 08:47:54;;;;;;;36.08;16.20;;;24.70;46.70;;;;;;6218114;28;86731;-65
2022/10/27 08:50:54;;;;;;;29.20;12.52;;;24.90;46.60;;;;;;6209610;28;83314;-63
2022/10/27 08:53:55;;;;;;;20.15;10.45;;;24.80;47.00;;;;;;6220716;28;86879;-63
2022/10/27 08:56:55;;;;;;;30.98;10.93;;;24.90;46.70;;;;;;6222257;28;82998;-62
2022/10/27 08:59:56;;;;;;;20.80;9.25;;;24.90;46.70;;;;;;6208184;28;83484;-63
2022/10/27 09:02:57;;;;;;;14.85;7.63;;;25.00;46.60;;;;;;6212772;28;82891;-64
2022/10/27 09:05:57;;;;;;;11.25;6.90;;;24.90;46.30;;;;;;6216135;28;83050;-62
2022/10/27 09:08:58;;;;;;;9.00;6.15;;;24.90;46.50;;;;;;6207418;28;80708;-63
2022/10/27 09:11:58;;;;;;;9.88;5.68;;;25.00;46.30;;;;;;6220412;28;81232;-64
2022/10/27 09:14:59;;;;;;;11.18;5.22;;;25.10;46.20;;;;;;6220379;28;80857;-69
2022/10/27 09:17:59;;;;;;;7.97;5.22;;;25.20;46.40;;;;;;6242015;28;80104;-64
2022/10/27 09:21:00;;;;;;;10.70;5.00;;;25.30;46.40;;;;;;6226583;27;80444;-65
2022/10/27 09:24:00;;;;;;;7.38;4.65;;;25.30;46.40;;;;;;6213716;28;85789;-65
2022/10/27 09:27:01;;;;;;;6.18;4.50;;;25.40;46.30;;;;;;6224599;28;80429;-61
2022/10/27 09:30:04;;;;;;;7.40;4.85;;;25.50;46.10;;;;;;6225588;28;87172;-66
2022/10/27 09:33:04;;;;;;;10.10;5.18;;;25.60;46.30;;;;;;6216023;28;81308;-68
2022/10/27 09:36:04;;;;;;;12.52;6.25;;;25.70;46.60;;;;;;6213215;28;80670;-66
2022/10/27 09:39:05;;;;;;;11.23;5.20;;;25.70;47.30;;;;;;6225826;28;80768;-67
2022/10/27 09:42:05;;;;;;;10.55;5.15;;;25.70;46.90;;;;;;6218976;28;81354;-67
2022/10/27 09:45:06;;;;;;;11.93;4.93;;;25.70;46.80;;;;;;6220118;27;80828;-64
2022/10/27 09:48:07;;;;;;;14.00;5.10;;;25.70;46.60;;;;;;6227874;28;81014;-67
2022/10/27 09:51:07;;;;;;;10.93;5.35;;;25.80;46.80;;;;;;6217603;28;82069;-67
2022/10/27 09:54:08;;;;;;;9.63;5.60;;;25.90;46.80;;;;;;6220649;28;80732;-61
2022/10/27 09:57:08;;;;;;;12.63;4.90;;;26.00;46.60;;;;;;6218878;28;80305;-61
2022/10/27 10:00:08;;;;;;;8.00;4.68;;;26.00;46.60;;;;;;6217106;28;81812;-60
2022/10/27 10:03:12;;;;;;;10.82;5.68;;;26.00;46.50;;;;;;6223876;28;81575;-58
2022/10/27 10:06:12;;;;;;;10.25;5.53;;;26.00;46.40;;;;;;6210540;28;80429;-60
2022/10/27 10:09:13;;;;;;;9.73;5.55;;;26.00;46.40;;;;;;6219849;28;80307;-59
2022/10/27 10:12:13;;;;;;;12.95;6.28;;;26.10;46.60;;;;;;6214843;28;80478;-57
2022/10/27 10:15:14;;;;;;;8.15;5.43;;;26.10;46.60;;;;;;6212134;28;81418;-58
2022/10/27 10:18:14;;;;;;;9.48;6.50;;;26.10;46.10;;;;;;6207440;28;80351;-57
2022/10/27 10:21:15;;;;;;;7.90;5.43;;;26.10;46.30;;;;;;6213394;28;80731;-62
2022/10/27 10:24:15;;;;;;;10.80;5.72;;;26.10;46.50;;;;;;6232117;27;80292;-62
2022/10/27 10:27:16;;;;;;;8.90;5.68;;;26.20;47.00;;;;;;6223895;28;80458;-65
2022/10/27 10:30:16;;;;;;;9.63;5.57;;;26.30;47.30;;;;;;6224061;28;80623;-60
2022/10/27 10:33:17;;;;;;;13.68;6.72;;;26.40;47.20;;;;;;6222143;28;80083;-60
2022/10/27 10:36:18;;;;;;;16.70;5.55;;;26.40;46.40;;;;;;6225221;28;81059;-59
2022/10/27 10:39:18;;;;;;;12.95;7.07;;;26.50;46.70;;;;;;6224589;28;82561;-59
2022/10/27 10:42:19;;;;;;;12.65;6.57;;;26.40;46.30;;;;;;6235167;28;80452;-58
2022/10/27 10:45:20;;;;;;;10.38;6.50;;;26.30;46.30;;;;;;6217722;28;80238;-58
2022/10/27 10:48:20;;;;;;;12.20;6.63;;;26.20;46.20;;;;;;6205678;28;80421;-59
2022/10/27 10:51:21;;;;;;;14.52;7.45;;;26.00;46.40;;;;;;6205238;28;81107;-59
2022/10/27 10:54:21;;;;;;;11.23;6.93;;;26.00;46.70;;;;;;6221874;28;81604;-59
2022/10/27 10:57:22;;;;;;;14.40;6.93;;;25.90;46.70;;;;;;6226055;28;80574;-60
2022/10/27 11:00:22;;;;;;;11.38;5.85;;;25.90;47.00;;;;;;6206964;28;80166;-58
2022/10/27 11:03:23;;;;;;;10.77;6.18;;;26.00;47.10;;;;;;6211880;28;80666;-59
2022/10/27 11:06:23;;;;;;;10.95;6.63;;;26.10;46.90;;;;;;6215996;28;80357;-59
2022/10/27 11:09:24;;;;;;;15.00;6.65;;;26.00;46.90;;;;;;6218483;28;82629;-58
2022/10/27 11:12:24;;;;;;;12.40;6.70;;;26.00;46.90;;;;;;6216893;28;80687;-59
2022/10/27 11:15:26;;;;;;;13.18;6.07;;;26.10;46.80;;;;;;6212078;28;83696;-59
2022/10/27 11:18:27;;;;;;;14.80;7.35;;;26.20;46.80;;;;;;6214379;28;80950;-59
2022/10/27 11:21:28;;;;;;;12.05;6.30;;;26.30;46.40;;;;;;6221203;28;86820;-59
2022/10/27 11:24:28;;;;;;;9.20;6.40;;;26.20;46.50;;;;;;6218003;28;80457;-48
2022/10/27 11:27:29;;;;;;;11.35;5.88;;;26.40;46.60;;;;;;6221042;28;81439;-49
2022/10/27 11:30:29;;;;;;;13.38;6.22;;;26.40;46.80;;;;;;6224829;28;80408;-48
2022/10/27 11:33:30;;;;;;;8.48;5.57;;;26.50;46.50;;;;;;6218533;28;80267;-48
2022/10/27 11:36:30;;;;;;;7.63;4.47;;;26.50;46.70;;;;;;6222082;28;85891;-47
2022/10/27 11:39:31;;;;;;;10.25;5.22;;;26.60;46.60;;;;;;6224795;28;80274;-49
2022/10/27 11:42:34;;;;;;;7.80;4.82;;;26.60;46.40;;;;;;6227411;28;80289;-60
2022/10/27 11:45:35;;;;;;;12.18;5.35;;;26.60;46.50;;;;;;6221812;28;80201;-63
2022/10/27 11:48:35;;;;;;;8.95;4.82;;;26.60;46.00;;;;;;6208865;28;80746;-63
2022/10/27 11:51:36;;;;;;;11.50;5.10;;;26.60;46.20;;;;;;6219855;28;80711;-63
2022/10/27 11:54:36;;;;;;;9.43;4.50;;;26.60;46.30;;;;;;6221652;28;84298;-63
2022/10/27 11:57:37;;;;;;;11.40;5.07;;;26.70;46.10;;;;;;6223556;28;80274;-63
2022/10/27 12:00:37;;;;;;;13.65;6.65;;;26.60;46.00;;;;;;6214077;28;80358;-61
2022/10/27 12:03:38;;;;;;;7.95;4.72;;;26.70;46.00;;;;;;6218745;28;80865;-62
2022/10/27 12:06:38;;;;;;;8.75;4.68;;;26.70;46.80;;;;;;6224790;28;80293;-63
2022/10/27 12:09:39;;;;;;;15.00;5.43;;;26.70;46.80;;;;;;6205770;28;83481;-62
2022/10/27 12:12:39;;;;;;;9.25;5.68;;;26.70;46.40;;;;;;6212588;28;80592;-63
2022/10/27 12:15:40;;;;;;;11.20;5.45;;;26.70;46.20;;;;;;6217657;28;83356;-63
2022/10/27 12:18:40;;;;;;;8.48;4.75;;;26.80;46.60;;;;;;6221170;28;80970;-62
2022/10/27 12:21:41;;;;;;;7.20;4.60;;;26.80;46.70;;;;;;6217533;28;80305;-60
2022/10/27 12:24:42;;;;;;;8.77;4.75;;;26.80;46.50;;;;;;6222714;28;80261;-61
2022/10/27 12:27:43;;;;;;;11.43;4.90;;;26.80;46.60;;;;;;6224416;28;83839;-63
2022/10/27 12:30:44;;;;;;;8.82;4.38;;;26.80;46.40;;;;;;6230838;28;81097;-61
2022/10/27 12:33:44;;;;;;;7.25;4.10;;;26.80;46.10;;;;;;6224551;28;80379;-62
2022/10/27 12:36:45;;;;;;;6.20;3.97;;;26.80;45.90;;;;;;6226408;28;80683;-62
2022/10/27 12:39:45;;;;;;;6.28;3.42;;;26.70;45.60;;;;;;6223715;28;80320;-63
2022/10/27 12:42:46;;;;;;;6.15;3.53;;;26.60;45.10;;;;;;6223757;28;80361;-64
2022/10/27 12:45:46;;;;;;;6.43;3.90;;;26.70;45.30;;;;;;6201745;28;80935;-62
2022/10/27 12:48:47;;;;;;;5.45;3.70;;;26.70;45.40;;;;;;6213778;28;80327;-64
2022/10/27 12:51:47;;;;;;;5.15;3.50;;;26.70;45.40;;;;;;6215438;28;83098;-63
2022/10/27 12:54:49;;;;;;;8.02;3.65;;;26.80;45.30;;;;;;6190612;28;80411;-61
2022/10/27 12:57:50;;;;;;;13.40;4.15;;;26.80;45.30;;;;;;6205872;28;80087;-63
2022/10/27 13:00:51;;;;;;;6.60;3.83;;;26.80;45.60;;;;;;6226221;28;80484;-63
2022/10/27 13:03:52;;;;;;;11.65;3.53;;;26.80;45.50;;;;;;6225205;28;84463;-60
2022/10/27 13:06:52;;;;;;;82.47;34.08;;;26.80;45.90;;;;;;6228548;28;84836;-61
2022/10/27 13:09:53;;;;;;;121.28;51.80;;;26.80;45.90;;;;;;6214783;28;86705;-61
2022/10/27 13:12:53;;;;;;;163.70;79.50;;;26.80;45.70;;;;;;6218902;28;83351;-62
2022/10/27 13:15:54;;;;;;;214.93;106.55;;;26.70;45.70;;;;;;6221454;28;83127;-62
2022/10/27 13:18:55;;;;;;;277.83;131.40;;;26.70;46.00;;;;;;6212794;28;85609;-62
2022/10/27 13:21:55;;;;;;;305.45;137.82;;;26.80;45.90;;;;;;6213830;28;85120;-61
2022/10/27 13:24:56;;;;;;;322.45;145.60;;;26.80;45.90;;;;;;6217808;28;88556;-61
2022/10/27 13:27:56;;;;;;;190.93;89.50;;;26.80;45.80;;;;;;6218284;28;87068;-62
2022/10/27 13:30:57;;;;;;;176.18;86.22;;;26.80;45.70;;;;;;6218347;28;85978;-60
2022/10/27 13:33:58;;;;;;;154.13;70.15;;;26.80;45.80;;;;;;6213205;28;82925;-61
2022/10/27 13:36:59;;;;;;;112.65;47.10;;;26.80;45.70;;;;;;6212869;28;84517;-59
2022/10/27 13:39:59;;;;;;;78.65;37.15;;;26.70;45.60;;;;;;6217031;28;87556;-62
2022/10/27 13:43:00;;;;;;;91.43;38.75;;;26.70;45.90;;;;;;6219504;28;83453;-61
2022/10/27 13:46:00;;;;;;;70.38;33.33;;;26.70;46.20;;;;;;6210104;28;83400;-59
2022/10/27 13:49:01;;;;;;;63.90;28.95;;;26.70;46.30;;;;;;6217236;28;83156;-62
2022/10/27 13:52:01;;;;;;;54.72;25.00;;;26.60;46.40;;;;;;6201724;28;83798;-63
2022/10/27 13:55:02;;;;;;;47.72;22.15;;;26.70;46.40;;;;;;6199846;28;89080;-62
2022/10/27 13:58:02;;;;;;;45.05;22.52;;;26.60;46.30;;;;;;6190223;28;83716;-62
2022/10/27 14:01:03;;;;;;;44.60;20.20;;;26.60;46.30;;;;;;6203571;28;84417;-61
2022/10/27 14:04:04;;;;;;;40.10;17.67;;;26.70;46.40;;;;;;6212870;28;83353;-62
2022/10/27 14:07:04;;;;;;;25.85;13.23;;;26.60;46.30;;;;;;6211782;28;82977;-62
2022/10/27 14:10:05;;;;;;;26.65;12.43;;;26.60;46.30;;;;;;6209408;28;83800;-61
2022/10/27 14:13:05;;;;;;;21.55;11.90;;;26.50;46.40;;;;;;6208158;28;83532;-65
2022/10/27 14:16:06;;;;;;;24.10;11.63;;;26.50;46.40;;;;;;6207662;28;83704;-62
2022/10/27 14:19:06;;;;;;;18.90;10.60;;;26.50;46.70;;;;;;6213113;28;82722;-61
2022/10/27 14:22:07;;;;;;;20.73;10.00;;;26.50;47.00;;;;;;6213434;28;83012;-62
2022/10/27 14:25:10;;;;;;;20.67;9.35;;;26.50;47.10;;;;;;6213574;28;84351;-64
2022/10/27 14:28:11;;;;;;;19.50;9.10;;;26.50;46.90;;;;;;6236854;28;83004;-62
2022/10/27 14:31:11;;;;;;;29.13;8.60;;;26.50;47.00;;;;;;6224144;28;86263;-62
2022/10/27 14:34:12;;;;;;;12.93;7.75;;;26.40;47.10;;;;;;6220512;28;80521;-63
2022/10/27 14:37:12;;;;;;;18.52;8.25;;;26.40;47.30;;;;;;6226315;28;81403;-60
2022/10/27 14:40:13;;;;;;;15.98;7.60;;;26.40;47.40;;;;;;6219407;28;80716;-62
2022/10/27 14:43:13;;;;;;;14.43;7.03;;;26.40;47.40;;;;;;6219396;28;86502;-64
2022/10/27 14:46:14;;;;;;;12.60;6.85;;;26.40;47.40;;;;;;6209850;28;81381;-62
2022/10/27 14:49:15;;;;;;;12.15;6.50;;;26.60;47.10;;;;;;6220131;28;80591;-62
2022/10/27 14:52:15;;;;;;;13.00;6.68;;;26.60;47.10;;;;;;6220437;28;80912;-60
2022/10/27 14:55:16;;;;;;;15.13;6.82;;;26.50;47.30;;;;;;6214071;28;80568;-62
2022/10/27 14:58:16;;;;;;;21.70;6.72;;;26.50;47.40;;;;;;6219236;28;82709;-62
2022/10/27 15:01:17;;;;;;;17.42;6.40;;;26.50;47.70;;;;;;6219104;28;80673;-61
2022/10/27 15:04:17;;;;;;;11.65;5.60;;;26.40;47.80;;;;;;6220663;28;82314;-49
2022/10/27 15:07:19;;;;;;;18.17;6.43;;;26.30;47.90;;;;;;6223888;28;80385;-47
2022/10/27 15:10:19;;;;;;;19.42;6.68;;;26.30;48.10;;;;;;6201252;28;83272;-47
2022/10/27 15:13:23;;;;;;;16.52;6.53;;;26.30;48.60;;;;;;6203776;28;80727;-59
2022/10/27 15:16:24;;;;;;;19.80;6.53;;;26.20;48.60;;;;;;6225130;28;80756;-48
2022/10/27 15:19:25;;;;;;;10.20;6.05;;;26.10;48.70;;;;;;6185113;28;80728;-46
2022/10/27 15:22:25;;;;;;;16.40;6.38;;;26.10;48.70;;;;;;6201186;28;80789;-49
2022/10/27 15:25:26;;;;;;;14.63;7.25;;;26.10;49.00;;;;;;6213399;28;82182;-51
2022/10/27 15:28:26;;;;;;;15.20;6.03;;;26.00;49.10;;;;;;6228399;28;81743;-50